sensor_id;sensor_type;location;lat;lon;timestamp;temperature;humidity
20246;DHT22;10281;54.406;18.556;2023-12-28T00:01:53;3.60;99.90
20246;DHT22;10281;54.406;18.556;2023-12-28T00:04:20;3.60;99.90
20246;DHT22;10281;54.406;18.556;2023-12-28T00:06:47;3.60;99.90
20246;DHT22;10281;54.406;18.556;2023-12-28T00:09:13;3.60;99.90
20246;DHT22;10281;54.406;18.556;2023-12-28T00:11:40;3.60;99.90
20246;DHT22;10281;54.406;18.556;2023-12-28T00:14:07;3.60;99.90
20246;DHT22;10281;54.406;18.556;2023-12-28T00:16:33;3.60;99.90
20246;DHT22;10281;54.406;18.556;2023-12-28T00:19:02;3.60;99.90
20246;DHT22;10281;54.406;18.556;2023-12-28T00:21:30;3.60;99.90
20246;DHT22;10281;54.406;18.556;2023-12-28T00:23:57;3.60;99.90
20246;DHT22;10281;54.406;18.556;2023-12-28T00:26:23;3.60;99.90
20246;DHT22;10281;54.406;18.556;2023-12-28T00:28:50;3.60;99.90
20246;DHT22;10281;54.406;18.556;2023-12-28T00:31:17;3.60;99.90
20246;DHT22;10281;54.406;18.556;2023-12-28T00:33:43;3.50;99.90
20246;DHT22;10281;54.406;18.556;2023-12-28T00:36:10;3.50;99.90
20246;DHT22;10281;54.406;18.556;2023-12-28T00:38:37;3.50;99.90
20246;DHT22;10281;54.406;18.556;2023-12-28T00:41:04;3.50;99.90
20246;DHT22;10281;54.406;18.556;2023-12-28T00:43:31;3.50;99.90
20246;DHT22;10281;54.406;18.556;2023-12-28T00:45:57;3.50;99.90
20246;DHT22;10281;54.406;18.556;2023-12-28T00:48:24;3.50;99.90
20246;DHT22;10281;54.406;18.556;2023-12-28T00:50:51;3.50;99.90
20246;DHT22;10281;54.406;18.556;2023-12-28T00:53:17;3.50;99.90
20246;DHT22;10281;54.406;18.556;2023-12-28T00:55:44;3.40;99.90
20246;DHT22;10281;54.406;18.556;2023-12-28T00:58:11;3.50;99.90
20246;DHT22;10281;54.406;18.556;2023-12-28T01:00:37;3.40;99.90
20246;DHT22;10281;54.406;18.556;2023-12-28T01:03:04;3.40;99.90
20246;DHT22;10281;54.406;18.556;2023-12-28T01:05:30;3.50;99.90
20246;DHT22;10281;54.406;18.556;2023-12-28T01:07:57;3.50;99.90
20246;DHT22;10281;54.406;18.556;2023-12-28T01:10:24;3.50;99.90
20246;DHT22;10281;54.406;18.556;2023-12-28T01:12:50;3.50;99.90
20246;DHT22;10281;54.406;18.556;2023-12-28T01:15:17;3.30;99.90
20246;DHT22;10281;54.406;18.556;2023-12-28T01:17:46;3.30;99.90
20246;DHT22;10281;54.406;18.556;2023-12-28T01:20:13;3.30;99.90
20246;DHT22;10281;54.406;18.556;2023-12-28T01:22:39;3.20;99.90
20246;DHT22;10281;54.406;18.556;2023-12-28T01:25:07;3.20;99.90
20246;DHT22;10281;54.406;18.556;2023-12-28T01:27:33;3.20;99.90
20246;DHT22;10281;54.406;18.556;2023-12-28T01:30:00;3.10;99.90
20246;DHT22;10281;54.406;18.556;2023-12-28T01:32:26;3.00;99.90
20246;DHT22;10281;54.406;18.556;2023-12-28T01:34:53;3.00;99.90
20246;DHT22;10281;54.406;18.556;2023-12-28T01:37:20;3.00;99.90
20246;DHT22;10281;54.406;18.556;2023-12-28T01:39:46;3.00;99.90
20246;DHT22;10281;54.406;18.556;2023-12-28T01:42:13;3.00;99.90
20246;DHT22;10281;54.406;18.556;2023-12-28T01:44:39;3.00;99.90
20246;DHT22;10281;54.406;18.556;2023-12-28T01:47:06;3.00;99.90
20246;DHT22;10281;54.406;18.556;2023-12-28T01:49:34;3.00;99.90
20246;DHT22;10281;54.406;18.556;2023-12-28T01:52:02;2.90;99.90
20246;DHT22;10281;54.406;18.556;2023-12-28T01:54:29;2.90;99.90
20246;DHT22;10281;54.406;18.556;2023-12-28T01:56:57;2.90;99.90
20246;DHT22;10281;54.406;18.556;2023-12-28T01:59:25;2.90;99.90
20246;DHT22;10281;54.406;18.556;2023-12-28T02:01:51;2.80;99.90
20246;DHT22;10281;54.406;18.556;2023-12-28T02:04:18;2.80;99.90
20246;DHT22;10281;54.406;18.556;2023-12-28T02:06:47;2.80;99.90
20246;DHT22;10281;54.406;18.556;2023-12-28T02:09:14;2.70;99.90
20246;DHT22;10281;54.406;18.556;2023-12-28T02:11:41;2.80;99.90
20246;DHT22;10281;54.406;18.556;2023-12-28T02:14:08;2.80;99.90
20246;DHT22;10281;54.406;18.556;2023-12-28T02:16:39;2.80;99.90
20246;DHT22;10281;54.406;18.556;2023-12-28T02:19:14;2.80;99.90
20246;DHT22;10281;54.406;18.556;2023-12-28T02:21:36;2.80;99.90
20246;DHT22;10281;54.406;18.556;2023-12-28T02:24:04;2.80;99.90
20246;DHT22;10281;54.406;18.556;2023-12-28T02:26:30;2.80;99.90
20246;DHT22;10281;54.406;18.556;2023-12-28T02:28:57;2.80;99.90
20246;DHT22;10281;54.406;18.556;2023-12-28T02:31:28;2.90;99.90
20246;DHT22;10281;54.406;18.556;2023-12-28T02:34:04;2.90;99.90
20246;DHT22;10281;54.406;18.556;2023-12-28T02:36:31;2.80;99.90
20246;DHT22;10281;54.406;18.556;2023-12-28T02:39:00;2.80;99.90
20246;DHT22;10281;54.406;18.556;2023-12-28T02:41:30;2.80;99.90
20246;DHT22;10281;54.406;18.556;2023-12-28T02:43:58;2.80;99.90
20246;DHT22;10281;54.406;18.556;2023-12-28T02:46:24;2.80;99.90
20246;DHT22;10281;54.406;18.556;2023-12-28T02:48:51;2.80;99.90
20246;DHT22;10281;54.406;18.556;2023-12-28T02:51:18;2.80;99.90
20246;DHT22;10281;54.406;18.556;2023-12-28T02:53:45;2.80;99.90
20246;DHT22;10281;54.406;18.556;2023-12-28T02:56:12;2.80;99.90
20246;DHT22;10281;54.406;18.556;2023-12-28T02:58:38;2.90;99.90
20246;DHT22;10281;54.406;18.556;2023-12-28T03:01:05;2.90;99.90
20246;DHT22;10281;54.406;18.556;2023-12-28T03:03:31;2.90;99.90
20246;DHT22;10281;54.406;18.556;2023-12-28T03:05:58;2.90;99.90
20246;DHT22;10281;54.406;18.556;2023-12-28T03:08:24;2.90;99.90
20246;DHT22;10281;54.406;18.556;2023-12-28T03:10:51;2.90;99.90
20246;DHT22;10281;54.406;18.556;2023-12-28T03:13:18;2.90;99.90
20246;DHT22;10281;54.406;18.556;2023-12-28T03:15:45;2.90;99.90
20246;DHT22;10281;54.406;18.556;2023-12-28T03:18:12;2.90;99.90
20246;DHT22;10281;54.406;18.556;2023-12-28T03:20:38;2.90;99.90
20246;DHT22;10281;54.406;18.556;2023-12-28T03:23:05;2.90;99.90
20246;DHT22;10281;54.406;18.556;2023-12-28T03:25:31;2.90;99.90
20246;DHT22;10281;54.406;18.556;2023-12-28T03:27:58;2.90;99.90
20246;DHT22;10281;54.406;18.556;2023-12-28T03:30:25;2.90;99.90
20246;DHT22;10281;54.406;18.556;2023-12-28T03:32:51;2.90;99.90
20246;DHT22;10281;54.406;18.556;2023-12-28T03:35:18;2.90;99.90
20246;DHT22;10281;54.406;18.556;2023-12-28T03:37:45;2.90;99.90
20246;DHT22;10281;54.406;18.556;2023-12-28T03:40:12;3.00;99.90
20246;DHT22;10281;54.406;18.556;2023-12-28T03:42:39;3.00;99.90
20246;DHT22;10281;54.406;18.556;2023-12-28T03:45:06;3.00;99.90
20246;DHT22;10281;54.406;18.556;2023-12-28T03:47:33;3.00;99.90
20246;DHT22;10281;54.406;18.556;2023-12-28T03:49:59;3.00;99.90
20246;DHT22;10281;54.406;18.556;2023-12-28T03:52:26;3.00;99.90
20246;DHT22;10281;54.406;18.556;2023-12-28T03:54:55;3.00;99.90
20246;DHT22;10281;54.406;18.556;2023-12-28T03:57:22;3.00;99.90
20246;DHT22;10281;54.406;18.556;2023-12-28T03:59:49;3.00;99.90
20246;DHT22;10281;54.406;18.556;2023-12-28T04:02:15;3.00;99.90
20246;DHT22;10281;54.406;18.556;2023-12-28T04:04:42;2.90;99.90
20246;DHT22;10281;54.406;18.556;2023-12-28T04:07:08;3.00;99.90
20246;DHT22;10281;54.406;18.556;2023-12-28T04:09:36;3.00;99.90
20246;DHT22;10281;54.406;18.556;2023-12-28T04:12:03;3.00;99.90
20246;DHT22;10281;54.406;18.556;2023-12-28T04:14:30;3.00;99.90
20246;DHT22;10281;54.406;18.556;2023-12-28T04:16:56;3.00;99.90
20246;DHT22;10281;54.406;18.556;2023-12-28T04:19:23;3.00;99.90
20246;DHT22;10281;54.406;18.556;2023-12-28T04:21:49;3.00;99.90
20246;DHT22;10281;54.406;18.556;2023-12-28T04:24:16;2.90;99.90
20246;DHT22;10281;54.406;18.556;2023-12-28T04:26:43;3.00;99.90
20246;DHT22;10281;54.406;18.556;2023-12-28T04:29:09;3.00;99.90
20246;DHT22;10281;54.406;18.556;2023-12-28T04:31:40;2.90;99.90
20246;DHT22;10281;54.406;18.556;2023-12-28T04:34:08;2.90;99.90
20246;DHT22;10281;54.406;18.556;2023-12-28T04:36:41;2.90;99.90
20246;DHT22;10281;54.406;18.556;2023-12-28T04:39:08;2.90;99.90
20246;DHT22;10281;54.406;18.556;2023-12-28T04:41:35;2.90;99.90
20246;DHT22;10281;54.406;18.556;2023-12-28T04:44:02;2.90;99.90
20246;DHT22;10281;54.406;18.556;2023-12-28T04:46:29;2.90;99.90
20246;DHT22;10281;54.406;18.556;2023-12-28T04:48:55;2.70;99.90
20246;DHT22;10281;54.406;18.556;2023-12-28T04:51:22;2.80;99.90
20246;DHT22;10281;54.406;18.556;2023-12-28T04:53:48;2.70;99.90
20246;DHT22;10281;54.406;18.556;2023-12-28T04:56:19;2.80;99.90
20246;DHT22;10281;54.406;18.556;2023-12-28T04:58:45;2.70;99.90
20246;DHT22;10281;54.406;18.556;2023-12-28T05:01:12;2.70;99.90
20246;DHT22;10281;54.406;18.556;2023-12-28T05:03:39;2.70;99.90
20246;DHT22;10281;54.406;18.556;2023-12-28T05:06:05;2.70;99.90
20246;DHT22;10281;54.406;18.556;2023-12-28T05:08:32;2.80;99.90
20246;DHT22;10281;54.406;18.556;2023-12-28T05:10:59;2.80;99.90
20246;DHT22;10281;54.406;18.556;2023-12-28T05:13:25;2.80;99.90
20246;DHT22;10281;54.406;18.556;2023-12-28T05:15:52;2.80;99.90
20246;DHT22;10281;54.406;18.556;2023-12-28T05:18:18;2.90;99.90
20246;DHT22;10281;54.406;18.556;2023-12-28T05:20:45;2.90;99.90
20246;DHT22;10281;54.406;18.556;2023-12-28T05:23:11;2.90;99.90
20246;DHT22;10281;54.406;18.556;2023-12-28T05:25:38;2.90;99.90
20246;DHT22;10281;54.406;18.556;2023-12-28T05:28:05;2.90;99.90
20246;DHT22;10281;54.406;18.556;2023-12-28T05:30:31;2.90;99.90
20246;DHT22;10281;54.406;18.556;2023-12-28T05:32:58;2.90;99.90
20246;DHT22;10281;54.406;18.556;2023-12-28T05:35:24;2.90;99.90
20246;DHT22;10281;54.406;18.556;2023-12-28T05:37:51;2.90;99.90
20246;DHT22;10281;54.406;18.556;2023-12-28T05:40:18;2.90;99.90
20246;DHT22;10281;54.406;18.556;2023-12-28T05:42:44;2.90;99.90
20246;DHT22;10281;54.406;18.556;2023-12-28T05:45:11;2.90;99.90
20246;DHT22;10281;54.406;18.556;2023-12-28T05:47:38;3.00;99.90
20246;DHT22;10281;54.406;18.556;2023-12-28T05:50:05;3.00;99.90
20246;DHT22;10281;54.406;18.556;2023-12-28T05:52:32;3.00;99.90
20246;DHT22;10281;54.406;18.556;2023-12-28T05:54:58;3.00;99.90
20246;DHT22;10281;54.406;18.556;2023-12-28T05:57:25;3.00;99.90
20246;DHT22;10281;54.406;18.556;2023-12-28T05:59:54;3.10;99.90
20246;DHT22;10281;54.406;18.556;2023-12-28T06:02:20;3.10;99.90
20246;DHT22;10281;54.406;18.556;2023-12-28T06:04:47;3.10;99.90
20246;DHT22;10281;54.406;18.556;2023-12-28T06:07:14;3.10;99.90
20246;DHT22;10281;54.406;18.556;2023-12-28T06:09:40;3.10;99.90
20246;DHT22;10281;54.406;18.556;2023-12-28T06:12:07;3.10;99.90
20246;DHT22;10281;54.406;18.556;2023-12-28T06:14:33;3.10;99.90
20246;DHT22;10281;54.406;18.556;2023-12-28T06:17:00;3.20;99.90
20246;DHT22;10281;54.406;18.556;2023-12-28T06:19:27;3.30;99.90
20246;DHT22;10281;54.406;18.556;2023-12-28T06:21:53;3.30;99.90
20246;DHT22;10281;54.406;18.556;2023-12-28T06:24:20;3.40;99.90
20246;DHT22;10281;54.406;18.556;2023-12-28T06:26:46;3.40;99.90
20246;DHT22;10281;54.406;18.556;2023-12-28T06:29:14;3.50;99.90
20246;DHT22;10281;54.406;18.556;2023-12-28T06:31:40;3.40;99.90
20246;DHT22;10281;54.406;18.556;2023-12-28T06:34:07;3.50;99.90
20246;DHT22;10281;54.406;18.556;2023-12-28T06:36:34;3.50;99.90
20246;DHT22;10281;54.406;18.556;2023-12-28T06:39:01;3.50;99.90
20246;DHT22;10281;54.406;18.556;2023-12-28T06:41:27;3.60;99.90
20246;DHT22;10281;54.406;18.556;2023-12-28T06:43:54;3.60;99.90
20246;DHT22;10281;54.406;18.556;2023-12-28T06:46:21;3.70;99.90
20246;DHT22;10281;54.406;18.556;2023-12-28T06:48:48;3.80;99.90
20246;DHT22;10281;54.406;18.556;2023-12-28T06:51:18;3.80;99.90
20246;DHT22;10281;54.406;18.556;2023-12-28T06:53:45;3.80;99.90
20246;DHT22;10281;54.406;18.556;2023-12-28T06:56:12;3.90;99.90
20246;DHT22;10281;54.406;18.556;2023-12-28T06:58:39;3.90;99.90
20246;DHT22;10281;54.406;18.556;2023-12-28T07:01:05;3.90;99.90
20246;DHT22;10281;54.406;18.556;2023-12-28T07:03:33;3.90;99.90
20246;DHT22;10281;54.406;18.556;2023-12-28T07:05:59;4.00;99.90
20246;DHT22;10281;54.406;18.556;2023-12-28T07:08:26;4.00;99.90
20246;DHT22;10281;54.406;18.556;2023-12-28T07:10:53;4.00;99.90
20246;DHT22;10281;54.406;18.556;2023-12-28T07:13:19;4.10;99.90
20246;DHT22;10281;54.406;18.556;2023-12-28T07:15:46;4.10;99.90
20246;DHT22;10281;54.406;18.556;2023-12-28T07:18:12;4.20;99.90
20246;DHT22;10281;54.406;18.556;2023-12-28T07:20:39;4.10;99.90
20246;DHT22;10281;54.406;18.556;2023-12-28T07:23:06;4.10;99.90
20246;DHT22;10281;54.406;18.556;2023-12-28T07:25:32;4.10;99.90
20246;DHT22;10281;54.406;18.556;2023-12-28T07:27:59;4.10;99.90
20246;DHT22;10281;54.406;18.556;2023-12-28T07:30:26;4.20;99.90
20246;DHT22;10281;54.406;18.556;2023-12-28T07:32:52;4.20;99.90
20246;DHT22;10281;54.406;18.556;2023-12-28T07:35:19;4.10;99.90
20246;DHT22;10281;54.406;18.556;2023-12-28T07:37:45;4.20;99.90
20246;DHT22;10281;54.406;18.556;2023-12-28T07:40:13;4.20;99.90
20246;DHT22;10281;54.406;18.556;2023-12-28T07:42:39;4.20;99.90
20246;DHT22;10281;54.406;18.556;2023-12-28T07:45:06;4.30;99.90
20246;DHT22;10281;54.406;18.556;2023-12-28T07:47:33;4.30;99.90
20246;DHT22;10281;54.406;18.556;2023-12-28T07:50:00;4.30;99.90
20246;DHT22;10281;54.406;18.556;2023-12-28T07:52:26;4.30;99.90
20246;DHT22;10281;54.406;18.556;2023-12-28T07:54:53;4.40;99.90
20246;DHT22;10281;54.406;18.556;2023-12-28T07:57:20;4.40;99.90
20246;DHT22;10281;54.406;18.556;2023-12-28T07:59:47;4.50;99.90
20246;DHT22;10281;54.406;18.556;2023-12-28T08:02:14;4.50;99.90
20246;DHT22;10281;54.406;18.556;2023-12-28T08:04:40;4.60;99.90
20246;DHT22;10281;54.406;18.556;2023-12-28T08:07:07;4.60;99.90
20246;DHT22;10281;54.406;18.556;2023-12-28T08:09:34;4.60;99.90
20246;DHT22;10281;54.406;18.556;2023-12-28T08:12:01;4.70;99.90
20246;DHT22;10281;54.406;18.556;2023-12-28T08:14:28;4.70;99.90
20246;DHT22;10281;54.406;18.556;2023-12-28T08:16:55;4.70;99.90
20246;DHT22;10281;54.406;18.556;2023-12-28T08:19:22;4.80;99.90
20246;DHT22;10281;54.406;18.556;2023-12-28T08:21:48;4.80;99.90
20246;DHT22;10281;54.406;18.556;2023-12-28T08:24:15;4.80;99.90
20246;DHT22;10281;54.406;18.556;2023-12-28T08:26:42;4.90;99.90
20246;DHT22;10281;54.406;18.556;2023-12-28T08:29:09;4.90;99.90
20246;DHT22;10281;54.406;18.556;2023-12-28T08:31:35;4.90;99.90
20246;DHT22;10281;54.406;18.556;2023-12-28T08:34:02;4.90;99.90
20246;DHT22;10281;54.406;18.556;2023-12-28T08:36:29;5.00;99.90
20246;DHT22;10281;54.406;18.556;2023-12-28T08:38:55;5.00;99.90
20246;DHT22;10281;54.406;18.556;2023-12-28T08:41:22;5.10;99.90
20246;DHT22;10281;54.406;18.556;2023-12-28T08:43:50;5.10;99.90
20246;DHT22;10281;54.406;18.556;2023-12-28T08:46:18;5.10;99.90
20246;DHT22;10281;54.406;18.556;2023-12-28T08:48:45;5.20;99.90
20246;DHT22;10281;54.406;18.556;2023-12-28T08:51:12;5.20;99.90
20246;DHT22;10281;54.406;18.556;2023-12-28T08:53:41;5.30;99.90
20246;DHT22;10281;54.406;18.556;2023-12-28T08:56:15;5.30;99.90
20246;DHT22;10281;54.406;18.556;2023-12-28T08:58:43;5.30;99.90
20246;DHT22;10281;54.406;18.556;2023-12-28T09:01:16;5.40;99.90
20246;DHT22;10281;54.406;18.556;2023-12-28T09:03:43;5.40;99.90
20246;DHT22;10281;54.406;18.556;2023-12-28T09:06:09;5.40;99.90
20246;DHT22;10281;54.406;18.556;2023-12-28T09:08:36;5.50;99.90
20246;DHT22;10281;54.406;18.556;2023-12-28T09:11:02;5.50;99.90
20246;DHT22;10281;54.406;18.556;2023-12-28T09:13:29;5.50;99.90
20246;DHT22;10281;54.406;18.556;2023-12-28T09:15:57;5.60;99.90
20246;DHT22;10281;54.406;18.556;2023-12-28T09:18:23;5.60;99.90
20246;DHT22;10281;54.406;18.556;2023-12-28T09:20:50;5.70;99.90
20246;DHT22;10281;54.406;18.556;2023-12-28T09:23:17;5.70;99.90
20246;DHT22;10281;54.406;18.556;2023-12-28T09:25:43;5.80;99.90
20246;DHT22;10281;54.406;18.556;2023-12-28T09:28:10;5.90;99.90
20246;DHT22;10281;54.406;18.556;2023-12-28T09:30:36;5.90;99.90
20246;DHT22;10281;54.406;18.556;2023-12-28T09:33:03;5.90;99.90
20246;DHT22;10281;54.406;18.556;2023-12-28T09:35:30;6.00;99.90
20246;DHT22;10281;54.406;18.556;2023-12-28T09:37:57;6.00;99.90
20246;DHT22;10281;54.406;18.556;2023-12-28T09:40:24;6.00;99.90
20246;DHT22;10281;54.406;18.556;2023-12-28T09:43:09;6.00;99.90
20246;DHT22;10281;54.406;18.556;2023-12-28T09:45:38;6.10;99.90
20246;DHT22;10281;54.406;18.556;2023-12-28T09:48:05;6.10;99.90
20246;DHT22;10281;54.406;18.556;2023-12-28T09:50:33;6.20;99.90
20246;DHT22;10281;54.406;18.556;2023-12-28T09:52:59;6.20;99.90
20246;DHT22;10281;54.406;18.556;2023-12-28T09:55:26;6.30;99.90
20246;DHT22;10281;54.406;18.556;2023-12-28T09:57:52;6.30;99.90
20246;DHT22;10281;54.406;18.556;2023-12-28T10:00:20;6.40;99.90
20246;DHT22;10281;54.406;18.556;2023-12-28T10:02:47;6.40;99.90
20246;DHT22;10281;54.406;18.556;2023-12-28T10:05:14;6.40;99.90
20246;DHT22;10281;54.406;18.556;2023-12-28T10:07:42;6.40;99.90
20246;DHT22;10281;54.406;18.556;2023-12-28T10:10:10;6.50;99.90
20246;DHT22;10281;54.406;18.556;2023-12-28T10:12:37;6.40;99.90
20246;DHT22;10281;54.406;18.556;2023-12-28T10:15:05;6.50;99.90
20246;DHT22;10281;54.406;18.556;2023-12-28T10:17:34;6.40;99.90
20246;DHT22;10281;54.406;18.556;2023-12-28T10:20:03;6.50;99.90
20246;DHT22;10281;54.406;18.556;2023-12-28T10:22:32;6.50;99.90
20246;DHT22;10281;54.406;18.556;2023-12-28T10:25:01;6.50;99.90
20246;DHT22;10281;54.406;18.556;2023-12-28T10:27:28;6.60;99.90
20246;DHT22;10281;54.406;18.556;2023-12-28T10:29:55;6.60;99.90
20246;DHT22;10281;54.406;18.556;2023-12-28T10:32:23;6.60;99.90
20246;DHT22;10281;54.406;18.556;2023-12-28T10:34:52;6.60;99.90
20246;DHT22;10281;54.406;18.556;2023-12-28T10:37:21;6.70;99.90
20246;DHT22;10281;54.406;18.556;2023-12-28T10:39:49;6.70;99.90
20246;DHT22;10281;54.406;18.556;2023-12-28T10:42:28;6.70;99.90
20246;DHT22;10281;54.406;18.556;2023-12-28T10:44:53;6.70;99.90
20246;DHT22;10281;54.406;18.556;2023-12-28T10:47:23;6.80;99.90
20246;DHT22;10281;54.406;18.556;2023-12-28T10:49:53;6.80;99.90
20246;DHT22;10281;54.406;18.556;2023-12-28T10:52:25;6.80;99.90
20246;DHT22;10281;54.406;18.556;2023-12-28T10:55:16;6.90;99.90
20246;DHT22;10281;54.406;18.556;2023-12-28T10:57:46;6.90;99.90
20246;DHT22;10281;54.406;18.556;2023-12-28T11:00:13;6.90;99.90
20246;DHT22;10281;54.406;18.556;2023-12-28T11:02:44;6.90;99.90
20246;DHT22;10281;54.406;18.556;2023-12-28T11:05:13;6.90;99.90
20246;DHT22;10281;54.406;18.556;2023-12-28T11:07:41;6.90;99.90
20246;DHT22;10281;54.406;18.556;2023-12-28T11:10:09;7.00;99.90
20246;DHT22;10281;54.406;18.556;2023-12-28T11:12:37;7.00;99.90
20246;DHT22;10281;54.406;18.556;2023-12-28T11:15:05;7.10;99.90
20246;DHT22;10281;54.406;18.556;2023-12-28T11:17:35;7.10;99.90
20246;DHT22;10281;54.406;18.556;2023-12-28T11:20:03;7.10;99.90
20246;DHT22;10281;54.406;18.556;2023-12-28T11:22:31;7.10;99.90
20246;DHT22;10281;54.406;18.556;2023-12-28T11:24:58;7.20;99.90
20246;DHT22;10281;54.406;18.556;2023-12-28T11:27:25;7.20;99.90
20246;DHT22;10281;54.406;18.556;2023-12-28T11:29:52;7.30;99.90
20246;DHT22;10281;54.406;18.556;2023-12-28T11:32:19;7.30;99.90
20246;DHT22;10281;54.406;18.556;2023-12-28T11:35:06;7.40;99.90
20246;DHT22;10281;54.406;18.556;2023-12-28T11:37:32;7.40;99.90
20246;DHT22;10281;54.406;18.556;2023-12-28T11:42:34;7.30;99.90
20246;DHT22;10281;54.406;18.556;2023-12-28T11:45:00;7.30;99.90
20246;DHT22;10281;54.406;18.556;2023-12-28T11:47:27;7.20;99.90
20246;DHT22;10281;54.406;18.556;2023-12-28T11:49:54;7.20;99.90
20246;DHT22;10281;54.406;18.556;2023-12-28T11:52:25;7.30;99.90
20246;DHT22;10281;54.406;18.556;2023-12-28T11:54:53;7.30;99.90
20246;DHT22;10281;54.406;18.556;2023-12-28T11:57:20;7.30;99.90
20246;DHT22;10281;54.406;18.556;2023-12-28T11:59:51;7.20;99.90
20246;DHT22;10281;54.406;18.556;2023-12-28T12:02:17;7.20;99.90
20246;DHT22;10281;54.406;18.556;2023-12-28T12:04:45;7.20;99.90
20246;DHT22;10281;54.406;18.556;2023-12-28T12:07:11;7.20;99.90
20246;DHT22;10281;54.406;18.556;2023-12-28T12:09:38;7.20;99.90
20246;DHT22;10281;54.406;18.556;2023-12-28T12:12:06;7.30;99.90
20246;DHT22;10281;54.406;18.556;2023-12-28T12:14:34;7.20;99.90
20246;DHT22;10281;54.406;18.556;2023-12-28T12:17:01;7.20;99.90
20246;DHT22;10281;54.406;18.556;2023-12-28T12:19:29;7.30;99.90
20246;DHT22;10281;54.406;18.556;2023-12-28T12:21:56;7.30;99.90
20246;DHT22;10281;54.406;18.556;2023-12-28T12:24:23;7.30;99.90
20246;DHT22;10281;54.406;18.556;2023-12-28T12:26:51;7.30;99.90
20246;DHT22;10281;54.406;18.556;2023-12-28T12:29:18;7.30;99.90
20246;DHT22;10281;54.406;18.556;2023-12-28T12:31:47;7.30;99.90
20246;DHT22;10281;54.406;18.556;2023-12-28T12:34:16;7.30;99.90
20246;DHT22;10281;54.406;18.556;2023-12-28T12:36:43;7.30;99.90
20246;DHT22;10281;54.406;18.556;2023-12-28T12:39:10;7.20;99.90
20246;DHT22;10281;54.406;18.556;2023-12-28T12:41:38;7.20;99.90
20246;DHT22;10281;54.406;18.556;2023-12-28T12:44:05;7.20;99.90
20246;DHT22;10281;54.406;18.556;2023-12-28T12:46:32;7.20;99.90
20246;DHT22;10281;54.406;18.556;2023-12-28T12:48:59;7.30;99.90
20246;DHT22;10281;54.406;18.556;2023-12-28T12:51:28;7.20;99.90
20246;DHT22;10281;54.406;18.556;2023-12-28T12:53:57;7.30;99.90
20246;DHT22;10281;54.406;18.556;2023-12-28T12:56:26;7.20;99.90
20246;DHT22;10281;54.406;18.556;2023-12-28T12:58:54;7.20;99.90
20246;DHT22;10281;54.406;18.556;2023-12-28T13:01:22;7.20;99.90
20246;DHT22;10281;54.406;18.556;2023-12-28T13:03:49;7.20;99.90
20246;DHT22;10281;54.406;18.556;2023-12-28T13:06:16;7.20;99.90
20246;DHT22;10281;54.406;18.556;2023-12-28T13:08:43;7.20;99.90
20246;DHT22;10281;54.406;18.556;2023-12-28T13:11:09;7.20;99.90
20246;DHT22;10281;54.406;18.556;2023-12-28T13:13:36;7.30;99.90
20246;DHT22;10281;54.406;18.556;2023-12-28T13:16:03;7.30;99.90
20246;DHT22;10281;54.406;18.556;2023-12-28T13:18:30;7.30;99.90
20246;DHT22;10281;54.406;18.556;2023-12-28T13:20:58;7.30;99.90
20246;DHT22;10281;54.406;18.556;2023-12-28T13:23:25;7.30;99.90
20246;DHT22;10281;54.406;18.556;2023-12-28T13:25:51;7.30;99.90
20246;DHT22;10281;54.406;18.556;2023-12-28T13:28:18;7.30;99.90
20246;DHT22;10281;54.406;18.556;2023-12-28T13:30:44;7.40;99.90
20246;DHT22;10281;54.406;18.556;2023-12-28T13:33:11;7.40;99.90
20246;DHT22;10281;54.406;18.556;2023-12-28T13:35:37;7.40;99.90
20246;DHT22;10281;54.406;18.556;2023-12-28T13:38:04;7.40;99.90
20246;DHT22;10281;54.406;18.556;2023-12-28T13:40:31;7.30;99.90
20246;DHT22;10281;54.406;18.556;2023-12-28T13:42:57;7.30;99.90
20246;DHT22;10281;54.406;18.556;2023-12-28T13:45:24;7.30;99.90
20246;DHT22;10281;54.406;18.556;2023-12-28T13:47:50;7.30;99.90
20246;DHT22;10281;54.406;18.556;2023-12-28T13:50:17;7.30;99.90
20246;DHT22;10281;54.406;18.556;2023-12-28T13:52:46;7.30;99.90
20246;DHT22;10281;54.406;18.556;2023-12-28T13:55:12;7.30;99.90
20246;DHT22;10281;54.406;18.556;2023-12-28T13:57:39;7.30;99.90
20246;DHT22;10281;54.406;18.556;2023-12-28T14:00:07;7.30;99.90
20246;DHT22;10281;54.406;18.556;2023-12-28T14:02:34;7.30;99.90
20246;DHT22;10281;54.406;18.556;2023-12-28T14:05:02;7.30;99.90
20246;DHT22;10281;54.406;18.556;2023-12-28T14:07:28;7.30;99.90
20246;DHT22;10281;54.406;18.556;2023-12-28T14:09:55;7.30;99.90
20246;DHT22;10281;54.406;18.556;2023-12-28T14:12:21;7.30;99.90
20246;DHT22;10281;54.406;18.556;2023-12-28T14:14:48;7.30;99.90
20246;DHT22;10281;54.406;18.556;2023-12-28T14:17:15;7.30;99.90
20246;DHT22;10281;54.406;18.556;2023-12-28T14:19:43;7.20;99.90
20246;DHT22;10281;54.406;18.556;2023-12-28T14:22:11;7.20;99.90
20246;DHT22;10281;54.406;18.556;2023-12-28T14:24:38;7.20;99.90
20246;DHT22;10281;54.406;18.556;2023-12-28T14:27:05;7.20;99.90
20246;DHT22;10281;54.406;18.556;2023-12-28T14:29:32;7.20;99.90
20246;DHT22;10281;54.406;18.556;2023-12-28T14:31:59;7.20;99.90
20246;DHT22;10281;54.406;18.556;2023-12-28T14:34:27;7.20;99.90
20246;DHT22;10281;54.406;18.556;2023-12-28T14:36:56;7.10;99.90
20246;DHT22;10281;54.406;18.556;2023-12-28T14:39:23;7.10;99.90
20246;DHT22;10281;54.406;18.556;2023-12-28T14:41:49;7.10;99.90
20246;DHT22;10281;54.406;18.556;2023-12-28T14:44:16;7.00;99.90
20246;DHT22;10281;54.406;18.556;2023-12-28T14:46:43;7.00;99.90
20246;DHT22;10281;54.406;18.556;2023-12-28T14:49:09;7.00;99.90
20246;DHT22;10281;54.406;18.556;2023-12-28T14:51:36;7.00;99.90
20246;DHT22;10281;54.406;18.556;2023-12-28T14:54:04;7.00;99.90
20246;DHT22;10281;54.406;18.556;2023-12-28T14:56:31;7.00;99.90
20246;DHT22;10281;54.406;18.556;2023-12-28T14:58:58;6.90;99.90
20246;DHT22;10281;54.406;18.556;2023-12-28T15:01:24;6.90;99.90
20246;DHT22;10281;54.406;18.556;2023-12-28T15:03:51;6.80;99.90
20246;DHT22;10281;54.406;18.556;2023-12-28T15:06:18;6.80;99.90
20246;DHT22;10281;54.406;18.556;2023-12-28T15:08:44;6.80;99.90
20246;DHT22;10281;54.406;18.556;2023-12-28T15:11:11;6.80;99.90
20246;DHT22;10281;54.406;18.556;2023-12-28T15:13:38;6.80;99.90
20246;DHT22;10281;54.406;18.556;2023-12-28T15:16:06;6.80;99.90
20246;DHT22;10281;54.406;18.556;2023-12-28T15:18:33;6.80;99.90
20246;DHT22;10281;54.406;18.556;2023-12-28T15:21:00;6.80;99.90
20246;DHT22;10281;54.406;18.556;2023-12-28T15:23:27;6.70;99.90
20246;DHT22;10281;54.406;18.556;2023-12-28T15:25:54;6.70;99.90
20246;DHT22;10281;54.406;18.556;2023-12-28T15:28:21;6.70;99.90
20246;DHT22;10281;54.406;18.556;2023-12-28T15:30:49;6.70;99.90
20246;DHT22;10281;54.406;18.556;2023-12-28T15:33:16;6.70;99.90